createdAt,value
2022-09-25T00:00:22.910Z,10.69
2022-09-25T00:03:04.207Z,10.59
2022-09-25T00:05:52.927Z,10.53
2022-09-25T00:08:34.307Z,10.55
2022-09-25T00:11:22.890Z,10.57
2022-09-25T00:14:11.898Z,10.57
2022-09-25T00:16:52.043Z,10.64
2022-09-25T00:19:56.912Z,10.58
2022-09-25T00:22:37.075Z,10.61
2022-09-25T00:25:24.910Z,10.57
2022-09-25T00:28:15.170Z,10.58
2022-09-25T00:30:57.932Z,10.55
2022-09-25T00:33:38.262Z,10.57
2022-09-25T00:36:24.872Z,10.64
2022-09-25T00:39:05.920Z,10.56
2022-09-25T00:41:52.843Z,10.54
2022-09-25T00:44:56.812Z,10.55
2022-09-25T00:47:54.942Z,10.55
2022-09-25T00:51:07.669Z,10.56
2022-09-25T00:53:54.842Z,10.68
2022-09-25T00:56:40.213Z,10.61
2022-09-25T00:59:24.840Z,10.69
2022-09-25T01:02:11.833Z,10.59
2022-09-25T01:04:52.673Z,10.70
2022-09-25T01:07:39.787Z,10.69
2022-09-25T01:10:22.088Z,10.70
2022-09-25T01:13:10.786Z,10.71
2022-09-25T01:16:26.164Z,10.61
2022-09-25T01:19:53.084Z,10.57
2022-09-25T01:23:16.951Z,10.57
2022-09-25T01:26:21.926Z,10.62
2022-09-25T01:29:35.822Z,10.65
2022-09-25T01:32:34.803Z,10.73
2022-09-25T01:35:39.912Z,10.72
2022-09-25T01:38:35.781Z,10.69
2022-09-25T01:41:18.985Z,10.64
2022-09-25T01:44:18.753Z,10.55
2022-09-25T01:47:21.756Z,10.48
2022-09-25T01:50:20.809Z,10.44
2022-09-25T01:53:13.722Z,10.45
2022-09-25T01:56:10.765Z,10.42
2022-09-25T01:59:03.775Z,10.36
2022-09-25T02:01:48.025Z,10.36
2022-09-25T02:04:55.759Z,10.35
2022-09-25T02:07:43.895Z,10.42
2022-09-25T02:10:38.706Z,10.37
2022-09-25T02:13:25.138Z,10.39
2022-09-25T02:16:20.781Z,10.39
2022-09-25T02:19:25.764Z,10.38
2022-09-25T02:22:21.745Z,10.38
2022-09-25T02:25:07.881Z,10.39
2022-09-25T02:27:54.755Z,10.27
2022-09-25T02:30:41.814Z,10.29
2022-09-25T02:33:28.694Z,10.29
2022-09-25T02:36:11.826Z,10.33
2022-09-25T02:39:01.683Z,10.28
2022-09-25T02:42:02.696Z,10.24
2022-09-25T02:45:20.696Z,10.22
2022-09-25T02:48:34.703Z,10.17
2022-09-25T02:51:50.682Z,10.09
2022-09-25T02:55:06.848Z,10.07
2022-09-25T02:58:31.686Z,9.99
2022-09-25T03:01:22.823Z,9.97
2022-09-25T03:04:04.951Z,9.91
2022-09-25T03:26:40.349Z,9.12
2022-09-25T03:29:29.946Z,9.27
2022-09-25T03:32:09.351Z,9.41
2022-09-25T03:34:56.368Z,9.44
2022-09-25T03:37:43.337Z,9.52
2022-09-25T03:40:32.522Z,9.66
2022-09-25T03:45:58.386Z,9.84
2022-09-25T03:48:38.423Z,9.82
2022-09-25T03:51:26.325Z,9.87
2022-09-25T03:54:06.481Z,9.86
2022-09-25T03:56:53.322Z,9.85
2022-09-25T03:59:33.434Z,9.97
2022-09-25T04:02:20.355Z,9.97
2022-09-25T04:05:03.616Z,9.93
2022-09-25T04:07:50.356Z,9.89
2022-09-25T04:10:30.482Z,9.91
2022-09-25T04:13:20.312Z,9.90
2022-09-25T04:16:01.309Z,9.87
2022-09-25T04:18:49.295Z,9.88
2022-09-25T04:21:29.405Z,9.94
2022-09-25T04:24:36.279Z,10.06
2022-09-25T04:27:17.365Z,10.42
2022-09-25T04:30:04.250Z,11.11
2022-09-25T04:33:02.925Z,11.98
2022-09-25T04:35:49.285Z,12.70
2022-09-25T04:38:31.728Z,13.50
2022-09-25T04:41:18.256Z,14.25
2022-09-25T04:44:05.283Z,15.05
2022-09-25T04:46:52.603Z,15.65
2022-09-25T04:49:32.258Z,16.21
2022-09-25T04:52:13.837Z,16.95
2022-09-25T04:55:01.254Z,17.49
2022-09-25T04:57:58.394Z,17.97
2022-09-25T05:00:47.269Z,18.87
2022-09-25T05:03:27.750Z,19.40
2022-09-25T05:06:14.220Z,20.11
2022-09-25T05:09:01.238Z,21.04
2022-09-25T05:11:48.245Z,21.83
2022-09-25T05:14:31.035Z,22.80
2022-09-25T05:17:19.218Z,23.81
2022-09-25T05:19:59.692Z,24.47
2022-09-25T05:22:46.194Z,24.66
2022-09-25T05:25:34.211Z,23.51
2022-09-25T05:28:14.721Z,23.44
2022-09-25T05:31:01.250Z,22.95
2022-09-25T05:33:43.512Z,23.41
2022-09-25T05:36:30.175Z,23.33
2022-09-25T05:39:14.453Z,24.14
2022-09-25T05:42:01.202Z,25.20
2022-09-25T05:44:42.304Z,26.52
2022-09-25T05:47:29.194Z,27.82
2022-09-25T05:50:09.349Z,28.96
2022-09-25T05:53:02.215Z,29.98
2022-09-25T05:55:42.285Z,31.04
2022-09-25T05:58:29.170Z,31.55
2022-09-25T06:01:12.337Z,32.13
2022-09-25T06:03:59.149Z,33.15
2022-09-25T06:06:39.794Z,33.82
2022-09-25T06:09:26.237Z,33.87
2022-09-25T06:12:14.201Z,34.19
2022-09-25T06:15:01.172Z,34.54
2022-09-25T06:17:48.152Z,34.84
2022-09-25T06:20:28.604Z,35.27
2022-09-25T06:23:15.126Z,34.76
2022-09-25T06:26:13.162Z,35.46
2022-09-25T06:28:55.359Z,34.56
2022-09-25T06:31:44.194Z,35.69
2022-09-25T06:34:31.168Z,35.41
2022-09-25T06:37:11.234Z,35.97
2022-09-25T06:39:58.142Z,36.45
2022-09-25T06:42:45.172Z,35.78
2022-09-25T06:45:26.884Z,35.83
2022-09-25T06:48:20.178Z,35.98
2022-09-25T06:51:01.210Z,34.22
2022-09-25T06:53:48.098Z,31.79
2022-09-25T06:56:28.513Z,31.87
2022-09-25T06:59:16.139Z,33.61
2022-09-25T07:02:16.574Z,34.03
2022-09-25T07:05:03.351Z,33.35
2022-09-25T07:07:50.241Z,33.53
2022-09-25T07:10:30.137Z,36.75
2022-09-25T07:13:17.091Z,36.68
2022-09-25T07:16:11.152Z,37.35
2022-09-25T07:19:08.133Z,38.24
2022-09-25T07:21:48.332Z,38.71
2022-09-25T07:24:36.117Z,38.05
2022-09-25T07:27:16.311Z,36.24
2022-09-25T07:30:03.174Z,31.21
2022-09-25T07:32:43.195Z,30.60
2022-09-25T07:35:30.079Z,30.74
2022-09-25T07:38:11.230Z,29.56
2022-09-25T07:41:00.126Z,28.52
2022-09-25T07:43:43.519Z,27.62
2022-09-25T07:46:35.185Z,27.17
2022-09-25T07:49:18.222Z,27.00
2022-09-25T07:52:06.081Z,26.78
2022-09-25T07:54:50.044Z,28.54
2022-09-25T07:57:38.079Z,30.02
2022-09-25T08:00:19.238Z,29.54
2022-09-25T08:03:07.093Z,28.12
2022-09-25T08:05:54.037Z,28.57
2022-09-25T08:08:35.036Z,28.15
2022-09-25T08:11:24.058Z,27.22
2022-09-25T08:14:04.523Z,25.54
2022-09-25T08:16:51.083Z,24.39
2022-09-25T08:19:38.165Z,23.88
2022-09-25T08:22:19.086Z,23.11
2022-09-25T08:25:06.181Z,24.19
2022-09-25T08:27:48.077Z,24.44
2022-09-25T08:30:36.237Z,24.21
2022-09-25T08:33:27.003Z,25.27
2022-09-25T08:36:07.557Z,25.11
2022-09-25T08:38:54.022Z,26.01
2022-09-25T08:42:00.848Z,27.34
2022-09-25T08:45:02.422Z,26.88
2022-09-25T08:48:12.895Z,27.55
2022-09-25T08:50:53.035Z,27.90
2022-09-25T08:53:41.363Z,27.08
2022-09-25T08:56:24.044Z,27.91
2022-09-25T08:59:44.989Z,28.83
2022-09-25T09:02:36.065Z,28.36
2022-09-25T09:05:30.809Z,29.55
2022-09-25T09:08:34.034Z,30.43
2022-09-25T09:11:27.800Z,30.83
2022-09-25T09:14:17.090Z,30.78
2022-09-25T09:17:19.014Z,31.87
2022-09-25T09:20:15.713Z,30.01
2022-09-25T09:23:05.997Z,29.31
2022-09-25T09:26:32.004Z,29.38
2022-09-25T09:29:53.972Z,29.32
2022-09-25T09:33:12.198Z,29.53
2022-09-25T09:35:55.052Z,28.14
2022-09-25T09:38:46.368Z,28.30
2022-09-25T09:42:01.951Z,29.28
2022-09-25T09:44:51.418Z,29.26
2022-09-25T09:47:45.984Z,30.00
2022-09-25T09:50:52.382Z,28.31
2022-09-25T09:53:43.937Z,28.36
2022-09-25T09:56:41.950Z,30.23
2022-09-25T09:59:31.015Z,31.13
2022-09-25T10:02:32.037Z,31.51
2022-09-25T10:05:26.410Z,31.99
2022-09-25T10:08:12.960Z,30.19
2022-09-25T10:10:55.000Z,28.71
2022-09-25T10:13:49.993Z,29.89
2022-09-25T10:16:30.615Z,30.09
2022-09-25T10:19:27.962Z,29.28
2022-09-25T10:22:28.295Z,28.81
2022-09-25T10:25:14.912Z,29.43
2022-09-25T10:27:55.108Z,28.21
2022-09-25T10:30:42.996Z,27.77
2022-09-25T10:33:30.041Z,27.31
2022-09-25T10:36:16.915Z,27.87
2022-09-25T10:39:17.723Z,26.44
2022-09-25T10:42:05.884Z,26.95
2022-09-25T10:44:57.698Z,25.96
2022-09-25T10:48:08.552Z,24.62
2022-09-25T10:50:48.940Z,23.86
2022-09-25T10:53:36.038Z,23.76
2022-09-25T10:56:20.889Z,23.09
2022-09-25T10:59:09.369Z,22.81
2022-09-25T11:01:51.162Z,22.44
2022-09-25T11:04:39.035Z,23.78
2022-09-25T11:07:28.947Z,23.85
2022-09-25T11:10:20.578Z,24.10
2022-09-25T11:13:07.909Z,25.57
2022-09-25T11:15:56.195Z,26.95
2022-09-25T11:19:01.255Z,27.52
2022-09-25T11:22:15.858Z,26.40
2022-09-25T11:25:13.149Z,24.57
2022-09-25T11:28:14.869Z,24.01
2022-09-25T11:31:16.936Z,24.34
2022-09-25T11:34:12.499Z,22.44
2022-09-25T11:37:06.873Z,21.21
2022-09-25T11:40:25.940Z,21.33
2022-09-25T11:43:13.842Z,21.88
2022-09-25T11:46:17.903Z,22.69
2022-09-25T11:49:26.827Z,23.08
2022-09-25T11:52:16.715Z,22.19
2022-09-25T11:55:52.813Z,20.89
2022-09-25T11:58:41.897Z,20.09
2022-09-25T12:01:54.870Z,19.69
2022-09-25T12:04:50.347Z,19.26
2022-09-25T12:08:17.874Z,19.24
2022-09-25T12:11:16.485Z,19.31
2022-09-25T12:14:09.869Z,19.20
2022-09-25T12:16:50.341Z,19.18
2022-09-25T12:19:42.824Z,19.06
2022-09-25T12:22:41.318Z,19.12
2022-09-25T12:25:48.846Z,19.27
2022-09-25T12:29:10.848Z,19.13
2022-09-25T12:32:07.113Z,19.13
2022-09-25T12:35:02.787Z,19.10
2022-09-25T12:37:56.762Z,19.05
2022-09-25T12:40:44.174Z,19.11
2022-09-25T12:43:46.789Z,18.97
2022-09-25T12:46:55.756Z,19.05
2022-09-25T12:49:56.809Z,18.84
2022-09-25T12:52:52.946Z,18.74
2022-09-25T12:55:53.816Z,18.77
2022-09-25T12:58:55.493Z,18.72
2022-09-25T13:01:37.848Z,18.82
2022-09-25T13:04:59.872Z,18.79
2022-09-25T13:08:02.813Z,18.86
2022-09-25T13:11:06.779Z,19.01
2022-09-25T13:13:54.113Z,18.87
2022-09-25T13:16:41.893Z,18.88
2022-09-25T13:19:34.783Z,18.77
2022-09-25T13:22:41.718Z,18.76
2022-09-25T13:25:21.863Z,18.85
2022-09-25T13:28:14.772Z,18.83
2022-09-25T13:31:09.430Z,18.85
2022-09-25T13:34:19.742Z,18.88
2022-09-25T13:37:02.857Z,18.92
2022-09-25T13:40:14.786Z,18.87
2022-09-25T13:42:55.634Z,18.89
2022-09-25T13:45:43.760Z,18.80
2022-09-25T13:48:46.763Z,18.79
2022-09-25T13:51:35.822Z,18.88
2022-09-25T13:54:22.704Z,18.88
2022-09-25T13:57:03.886Z,18.88
2022-09-25T13:59:51.652Z,18.84
2022-09-25T14:02:43.446Z,18.92
2022-09-25T14:05:33.731Z,18.85
2022-09-25T14:08:16.358Z,18.92
2022-09-25T14:11:07.719Z,18.87
2022-09-25T14:13:51.878Z,18.82
2022-09-25T14:16:43.734Z,18.92
2022-09-25T14:19:29.791Z,18.79
2022-09-25T14:22:19.656Z,18.84
2022-09-25T14:25:06.780Z,18.73
2022-09-25T14:27:59.681Z,18.70
2022-09-25T14:30:39.783Z,18.66
2022-09-25T14:33:42.685Z,18.78
2022-09-25T14:36:52.698Z,18.83
2022-09-25T14:39:42.229Z,18.86
2022-09-25T14:42:37.683Z,18.75
2022-09-25T14:45:44.187Z,18.71
2022-09-25T14:48:44.632Z,18.70
2022-09-25T14:51:33.546Z,18.62
2022-09-25T14:54:26.663Z,18.62
2022-09-25T14:57:19.877Z,18.52
2022-09-25T15:00:08.764Z,18.59
2022-09-25T15:02:56.737Z,18.54
2022-09-25T15:05:41.773Z,18.57
2022-09-25T15:08:50.649Z,18.49
2022-09-25T15:28:00.592Z,17.94
2022-09-25T15:30:48.609Z,17.98
2022-09-25T15:33:41.596Z,18.10
2022-09-25T15:36:31.542Z,18.15
2022-09-25T15:39:23.695Z,18.07
2022-09-25T15:42:12.536Z,18.05
2022-09-25T15:44:54.242Z,18.03
2022-09-25T15:47:43.496Z,17.95
2022-09-25T15:50:30.713Z,17.91
2022-09-25T15:53:28.494Z,17.86
2022-09-25T15:56:19.596Z,17.84
2022-09-25T16:00:10.484Z,17.69
2022-09-25T16:03:30.503Z,17.62
2022-09-25T16:06:17.646Z,17.59
2022-09-25T16:09:22.512Z,17.51
2022-09-25T16:12:19.966Z,17.52
2022-09-25T16:15:07.498Z,17.48
2022-09-25T16:17:47.951Z,17.43
2022-09-25T16:20:34.506Z,17.49
2022-09-25T16:23:28.972Z,17.41
2022-09-25T16:26:15.468Z,17.38
2022-09-25T16:29:05.241Z,17.43
2022-09-25T16:32:00.561Z,17.44
2022-09-25T16:34:41.932Z,17.41
2022-09-25T16:37:37.449Z,17.33
2022-09-25T16:40:31.532Z,17.35
2022-09-25T16:43:31.868Z,17.27
2022-09-25T16:46:22.587Z,17.25
2022-09-25T16:49:07.617Z,17.21
2022-09-25T16:51:56.675Z,17.24
2022-09-25T16:54:46.530Z,17.32
2022-09-25T16:57:41.290Z,17.25
2022-09-25T17:00:33.699Z,17.31
2022-09-25T17:03:20.543Z,17.30
2022-09-25T17:06:01.761Z,17.32
2022-09-25T17:08:48.506Z,17.36
2022-09-25T17:11:29.526Z,17.31
2022-09-25T17:14:29.588Z,17.26
2022-09-25T17:17:09.580Z,17.28
2022-09-25T17:19:56.554Z,17.26
2022-09-25T17:22:36.493Z,17.27
2022-09-25T17:25:30.463Z,17.17
2022-09-25T17:28:25.563Z,17.21
2022-09-25T17:31:12.682Z,17.24
2022-09-25T17:33:58.493Z,17.19
2022-09-25T17:36:38.857Z,17.29
2022-09-25T17:39:25.486Z,17.30
2022-09-25T17:42:12.397Z,17.32
2022-09-25T17:44:52.574Z,17.24
2022-09-25T17:47:39.422Z,17.28
2022-09-25T17:50:19.850Z,17.36
2022-09-25T17:53:06.501Z,17.48
2022-09-25T17:55:53.467Z,17.47
2022-09-25T17:58:40.383Z,17.44
2022-09-25T18:01:27.050Z,17.45
2022-09-25T18:04:25.298Z,17.36
2022-09-25T18:07:06.590Z,17.30
2022-09-25T18:09:53.332Z,17.30
2022-09-25T18:12:33.454Z,17.19
2022-09-25T18:15:20.357Z,17.10
2022-09-25T18:18:00.463Z,17.12
2022-09-25T18:21:09.123Z,17.12
2022-09-25T18:23:49.609Z,17.16
2022-09-25T18:26:44.342Z,17.20
2022-09-25T18:29:25.478Z,17.14
2022-09-25T18:32:12.393Z,17.07
2022-09-25T18:34:52.345Z,16.93
2022-09-25T18:37:32.785Z,16.82
2022-09-25T18:40:19.409Z,16.74
2022-09-25T18:43:01.444Z,16.60
2022-09-25T18:45:51.362Z,16.70
2022-09-25T18:48:38.315Z,16.75
2022-09-25T18:51:18.421Z,16.82
2022-09-25T18:54:05.345Z,17.00
2022-09-25T18:56:52.284Z,17.03
2022-09-25T18:59:32.789Z,17.08
2022-09-25T19:02:21.355Z,17.20
2022-09-25T19:05:08.327Z,17.20
2022-09-25T19:07:48.392Z,17.18
2022-09-25T19:10:38.306Z,17.17
2022-09-25T19:13:19.231Z,17.07
2022-09-25T19:16:07.374Z,17.10
2022-09-25T19:18:47.440Z,17.02
2022-09-25T19:21:34.288Z,17.03
2022-09-25T19:24:25.250Z,17.10
2022-09-25T19:27:19.277Z,17.05
2022-09-25T19:29:59.742Z,17.11
2022-09-25T19:32:46.260Z,17.01
2022-09-25T19:35:26.594Z,16.93
2022-09-25T19:38:13.263Z,16.85
2022-09-25T19:41:00.274Z,16.76
2022-09-25T19:43:50.286Z,16.76
2022-09-25T19:46:32.070Z,16.77
2022-09-25T19:49:19.226Z,16.79
2022-09-25T19:51:59.656Z,16.80
2022-09-25T19:54:46.266Z,16.74
2022-09-25T19:57:27.667Z,16.63
2022-09-25T20:00:14.232Z,16.59
2022-09-25T20:02:54.670Z,16.65
2022-09-25T20:05:41.201Z,16.65
2022-09-25T20:08:21.731Z,16.64
2022-09-25T20:11:09.237Z,16.64
2022-09-25T20:13:51.035Z,16.61
2022-09-25T20:16:41.227Z,16.44
2022-09-25T20:19:28.244Z,16.49
2022-09-25T20:22:11.567Z,16.57
2022-09-25T20:24:58.232Z,16.57
2022-09-25T20:27:52.225Z,16.57
2022-09-25T20:30:42.282Z,16.68
2022-09-25T20:33:33.929Z,16.60
2022-09-25T20:36:15.843Z,16.65
2022-09-25T20:39:04.170Z,16.72
2022-09-25T20:41:51.228Z,16.77
2022-09-25T20:44:38.157Z,16.79
2022-09-25T20:47:20.855Z,16.80
2022-09-25T20:50:07.236Z,16.73
2022-09-25T20:52:54.174Z,16.90
2022-09-25T20:55:41.189Z,16.87
2022-09-25T20:58:21.644Z,16.68
2022-09-25T21:01:14.207Z,16.56
2022-09-25T21:04:01.341Z,16.49
2022-09-25T21:06:43.335Z,16.57
2022-09-25T21:09:37.572Z,16.49
2022-09-25T21:12:17.362Z,16.58
2022-09-25T21:15:04.249Z,16.66
2022-09-25T21:17:44.295Z,16.70
2022-09-25T21:20:31.143Z,16.64
2022-09-25T21:23:11.305Z,16.61
2022-09-25T21:25:59.214Z,16.59
2022-09-25T21:28:48.316Z,16.41
2022-09-25T21:31:31.238Z,16.36
2022-09-25T21:34:20.292Z,16.35
2022-09-25T21:37:00.154Z,16.48
2022-09-25T21:39:47.150Z,16.49
2022-09-25T21:42:34.142Z,16.49
2022-09-25T21:45:14.666Z,16.42
2022-09-25T21:48:03.102Z,16.42
2022-09-25T21:51:05.111Z,16.48
2022-09-25T21:53:45.265Z,16.39
2022-09-25T21:56:34.140Z,16.41
2022-09-25T21:59:21.062Z,16.48
2022-09-25T22:02:08.154Z,16.45
2022-09-25T22:04:55.076Z,16.47
2022-09-25T22:07:35.542Z,16.46
2022-09-25T22:10:22.096Z,16.45
2022-09-25T22:13:02.958Z,16.37
2022-09-25T22:15:50.077Z,16.37
2022-09-25T22:18:31.443Z,16.30
2022-09-25T22:21:18.119Z,16.27
2022-09-25T22:23:59.440Z,16.27
2022-09-25T22:26:50.067Z,16.25
2022-09-25T22:29:30.668Z,16.04
2022-09-25T22:32:17.069Z,16.00
2022-09-25T22:35:04.083Z,15.90
2022-09-25T22:37:44.168Z,15.88
2022-09-25T22:40:31.046Z,15.86
2022-09-25T22:43:19.086Z,15.92
2022-09-25T22:46:06.222Z,15.89
2022-09-25T22:48:47.020Z,15.81
2022-09-25T22:51:34.132Z,15.76
2022-09-25T22:54:14.048Z,15.65
2022-09-25T22:57:01.035Z,15.63
2022-09-25T22:59:41.170Z,15.65
2022-09-25T23:02:28.063Z,15.55
2022-09-25T23:05:08.190Z,15.54
2022-09-25T23:07:55.001Z,15.53
2022-09-25T23:10:55.098Z,15.45
2022-09-25T23:13:43.022Z,15.38
2022-09-25T23:16:24.198Z,15.30
2022-09-25T23:19:11.017Z,15.25
2022-09-25T23:21:57.996Z,15.17
2022-09-25T23:24:38.569Z,15.12
2022-09-25T23:27:24.997Z,15.06
2022-09-25T23:30:05.690Z,14.97
2022-09-25T23:32:51.989Z,14.94
2022-09-25T23:35:34.611Z,14.90
2022-09-25T23:38:21.052Z,14.73
2022-09-25T23:41:02.228Z,14.70
2022-09-25T23:43:48.963Z,14.68
2022-09-25T23:46:32.542Z,14.67
2022-09-25T23:49:18.936Z,14.72
2022-09-25T23:51:59.409Z,14.81
2022-09-25T23:54:46.972Z,14.87
2022-09-25T23:57:27.518Z,14.91
